createdAt,value
2019-05-12T00:46:48.673Z,5.73
2019-05-12T00:49:18.753Z,5.68
2019-05-12T00:51:50.016Z,5.66
2019-05-12T00:54:18.588Z,5.42
2019-05-12T00:56:48.263Z,5.47
2019-05-12T01:09:49.063Z,5.52
2019-05-12T01:12:18.009Z,5.46
2019-05-12T01:21:37.656Z,5.49
2019-05-12T01:27:28.761Z,5.44
2019-05-12T01:29:58.393Z,5.64
2019-05-12T01:32:38.860Z,5.78
2019-05-12T01:35:08.400Z,5.91
2019-05-12T01:37:38.328Z,5.96
2019-05-12T01:51:01.317Z,5.90
2019-05-12T01:53:29.776Z,5.96
2019-05-12T02:09:59.222Z,6.20
2019-05-12T02:12:30.227Z,6.22
2019-05-12T02:14:58.956Z,6.34
2019-05-12T02:17:28.337Z,5.75
2019-05-12T02:19:58.590Z,6.61
2019-05-12T02:22:27.895Z,6.69
2019-05-12T02:24:58.417Z,6.76
2019-05-12T02:27:28.382Z,6.85
2019-05-12T02:29:58.542Z,6.83
2019-05-12T02:32:35.482Z,6.84
2019-05-12T02:34:55.942Z,7.00
2019-05-12T02:37:26.265Z,6.85
2019-05-12T02:39:56.540Z,6.95
2019-05-12T02:42:27.872Z,6.89
2019-05-12T02:45:40.221Z,6.95
2019-05-12T02:48:08.274Z,6.83
2019-05-12T02:50:37.498Z,6.65
2019-05-12T02:53:06.190Z,6.75
2019-05-12T02:55:35.722Z,6.66
2019-05-12T02:58:05.278Z,6.56
2019-05-12T03:00:35.601Z,6.43
2019-05-12T03:03:06.458Z,6.51
2019-05-12T03:05:35.645Z,6.52
2019-05-12T03:17:07.636Z,6.55
2019-05-12T03:19:36.239Z,6.53
2019-05-12T03:38:45.112Z,6.20
2019-05-12T03:41:14.429Z,6.08
2019-05-12T03:43:44.546Z,6.14
2019-05-12T03:46:10.638Z,5.92
2019-05-12T03:48:38.650Z,5.99
2019-05-12T03:51:06.733Z,5.99
2019-05-12T03:53:35.509Z,5.91
2019-05-12T03:56:06.369Z,5.96
2019-05-12T04:08:45.527Z,5.51
2019-05-12T04:11:14.726Z,5.51
2019-05-12T04:13:45.181Z,5.65
2019-05-12T04:16:16.296Z,5.66
2019-05-12T04:18:45.076Z,5.48
2019-05-12T04:21:15.713Z,5.55
2019-05-12T04:23:48.950Z,5.40
2019-05-12T04:26:17.559Z,5.34
2019-05-12T04:29:35.005Z,5.29
2019-05-12T04:39:34.096Z,5.31
2019-05-12T04:42:36.521Z,5.29
2019-05-12T04:45:05.234Z,5.41
2019-05-12T04:47:34.905Z,5.54
2019-05-12T04:50:06.935Z,5.39
2019-05-12T04:53:14.423Z,5.60
2019-05-12T04:56:35.831Z,4.28
2019-05-12T04:59:04.979Z,4.83
2019-05-12T05:05:56.314Z,6.11
2019-05-12T05:12:13.911Z,6.54
2019-05-12T05:14:44.635Z,6.40
2019-05-12T05:18:34.388Z,6.51
2019-05-12T05:20:17.882Z,6.66
2019-05-12T05:22:46.064Z,6.64
2019-05-12T05:25:14.621Z,6.69
2019-05-12T05:27:49.773Z,6.68
2019-05-12T05:30:58.403Z,6.81
2019-05-12T05:33:38.141Z,6.86
2019-05-12T05:36:15.205Z,6.94
2019-05-12T05:38:51.076Z,7.20
2019-05-12T05:41:20.887Z,7.27
2019-05-12T05:43:54.289Z,7.18
2019-05-12T05:46:20.364Z,7.26
2019-05-12T05:48:48.242Z,7.24
2019-05-12T05:51:16.152Z,7.32
2019-05-12T05:53:44.351Z,7.40
2019-05-12T05:56:14.684Z,7.48
2019-05-12T05:58:47.111Z,7.47
2019-05-12T06:01:13.730Z,7.52
2019-05-12T06:03:41.352Z,7.51
2019-05-12T06:06:12.441Z,7.61
2019-05-12T06:08:38.872Z,7.60
2019-05-12T06:11:08.603Z,7.91
2019-05-12T06:13:36.377Z,7.98
2019-05-12T06:16:04.569Z,8.10
2019-05-12T06:18:33.435Z,8.25
2019-05-12T06:21:03.476Z,8.27
2019-05-12T06:23:34.890Z,8.54
2019-05-12T06:26:03.959Z,8.57
2019-05-12T06:28:31.135Z,8.50
2019-05-12T06:31:00.078Z,8.67
2019-05-12T06:33:31.475Z,8.40
2019-05-12T06:35:57.681Z,8.58
2019-05-12T06:38:25.584Z,8.68
2019-05-12T06:40:54.435Z,8.75
2019-05-12T06:43:24.275Z,9.00
2019-05-12T06:45:54.332Z,9.13
2019-05-12T06:48:28.395Z,9.10
2019-05-12T06:50:53.398Z,8.88
2019-05-12T06:53:29.047Z,9.04
2019-05-12T06:55:50.561Z,9.15
2019-05-12T06:58:26.382Z,9.20
2019-05-12T07:00:48.148Z,9.26
2019-05-12T07:03:19.580Z,9.43
2019-05-12T07:05:45.729Z,9.57
2019-05-12T07:08:17.895Z,9.66
2019-05-12T07:10:46.643Z,9.81
2019-05-12T07:13:14.789Z,9.76
2019-05-12T07:15:43.904Z,9.57
2019-05-12T07:18:17.239Z,9.82
2019-05-12T07:20:43.693Z,9.91
2019-05-12T07:23:14.035Z,9.97
2019-05-12T07:25:41.263Z,10.04
2019-05-12T07:28:09.154Z,10.73
2019-05-12T07:30:37.061Z,10.31
2019-05-12T07:33:05.140Z,9.72
2019-05-12T07:35:33.942Z,9.75
2019-05-12T07:38:04.571Z,9.83
2019-05-12T07:40:34.707Z,10.04
2019-05-12T07:43:03.990Z,10.63
2019-05-12T07:45:33.433Z,11.02
2019-05-12T07:48:08.174Z,11.62
2019-05-12T07:50:31.221Z,11.40
2019-05-12T07:52:59.129Z,10.92
2019-05-12T07:55:27.004Z,10.67
2019-05-12T07:57:58.747Z,10.59
2019-05-12T08:00:25.722Z,10.45
2019-05-12T08:02:54.102Z,10.38
2019-05-12T08:05:23.907Z,10.28
2019-05-12T08:07:53.539Z,10.02
2019-05-12T08:10:23.384Z,10.01
2019-05-12T08:12:55.851Z,10.01
2019-05-12T08:15:20.587Z,10.04
2019-05-12T08:17:49.322Z,10.73
2019-05-12T08:20:18.204Z,11.47
2019-05-12T08:22:46.099Z,11.82
2019-05-12T08:25:18.826Z,11.78
2019-05-12T08:27:45.139Z,11.75
2019-05-12T08:30:13.967Z,11.48
2019-05-12T08:32:44.351Z,10.98
2019-05-12T08:35:14.015Z,11.50
2019-05-12T08:37:43.937Z,11.58
2019-05-12T08:40:11.177Z,11.08
2019-05-12T08:42:39.097Z,12.35
2019-05-12T08:45:08.210Z,12.35
2019-05-12T08:47:38.901Z,12.71
2019-05-12T08:50:06.037Z,13.14
2019-05-12T08:52:37.138Z,13.48
2019-05-12T08:55:04.265Z,13.57
2019-05-12T08:57:40.526Z,13.55
2019-05-12T09:00:06.704Z,13.48
2019-05-12T09:02:34.290Z,13.40
2019-05-12T09:05:04.428Z,13.10
2019-05-12T09:07:38.260Z,13.45
2019-05-12T09:10:01.091Z,13.93
2019-05-12T09:12:29.055Z,14.57
2019-05-12T09:14:56.974Z,14.01
2019-05-12T09:17:24.866Z,14.50
2019-05-12T09:19:56.612Z,13.99
2019-05-12T09:22:24.144Z,15.01
2019-05-12T09:24:53.388Z,14.29
2019-05-12T09:27:21.476Z,13.85
2019-05-12T09:29:49.413Z,13.01
2019-05-12T09:32:19.663Z,12.49
2019-05-12T09:34:52.920Z,13.11
2019-05-12T09:37:18.038Z,12.77
2019-05-12T09:39:47.449Z,12.66
2019-05-12T09:42:19.291Z,12.70
2019-05-12T09:44:45.164Z,13.36
2019-05-12T09:47:22.733Z,13.22
2019-05-12T09:49:44.431Z,13.21
2019-05-12T09:52:13.941Z,14.21
2019-05-12T09:54:44.260Z,15.24
2019-05-12T09:57:13.645Z,13.22
2019-05-12T09:59:45.880Z,13.69
2019-05-12T10:02:16.526Z,13.74
2019-05-12T10:04:40.720Z,13.69
2019-05-12T10:07:08.712Z,12.78
2019-05-12T10:09:36.581Z,12.74
2019-05-12T10:12:05.528Z,12.64
2019-05-12T10:14:33.727Z,12.84
2019-05-12T10:17:03.663Z,12.63
2019-05-12T10:19:31.276Z,12.96
2019-05-12T10:21:59.671Z,12.02
2019-05-12T10:24:33.693Z,12.20
2019-05-12T10:26:57.290Z,12.77
2019-05-12T10:29:30.571Z,12.70
2019-05-12T10:31:54.793Z,12.81
2019-05-12T10:34:23.999Z,13.76
2019-05-12T10:36:53.852Z,14.17
2019-05-12T10:39:24.132Z,15.09
2019-05-12T10:41:53.909Z,14.55
2019-05-12T10:44:21.376Z,14.81
2019-05-12T10:46:53.738Z,14.22
2019-05-12T10:49:23.305Z,13.88
2019-05-12T10:51:53.796Z,14.14
2019-05-12T10:54:21.064Z,14.99
2019-05-12T10:56:48.975Z,14.81
2019-05-12T10:59:29.198Z,14.06
2019-05-12T11:01:49.079Z,13.70
2019-05-12T11:04:16.317Z,13.46
2019-05-12T11:06:48.387Z,14.10
2019-05-12T11:09:14.045Z,13.59
2019-05-12T11:11:46.692Z,13.53
2019-05-12T11:14:14.097Z,13.37
2019-05-12T11:16:42.492Z,13.45
2019-05-12T11:19:13.582Z,13.28
2019-05-12T11:21:40.970Z,13.41
2019-05-12T11:24:08.912Z,14.25
2019-05-12T11:26:36.805Z,14.36
2019-05-12T11:29:04.773Z,14.35
2019-05-12T11:31:33.455Z,13.25
2019-05-12T11:34:01.556Z,14.05
2019-05-12T11:36:29.511Z,13.72
2019-05-12T11:38:57.517Z,13.74
2019-05-12T11:41:28.377Z,13.41
2019-05-12T11:43:55.113Z,13.25
2019-05-12T11:46:23.881Z,15.02
2019-05-12T11:48:53.843Z,15.95
2019-05-12T11:51:26.994Z,15.14
2019-05-12T11:53:51.257Z,15.95
2019-05-12T11:56:19.140Z,15.95
2019-05-12T11:58:51.331Z,16.48
2019-05-12T12:01:18.576Z,16.49
2019-05-12T12:03:46.512Z,16.54
2019-05-12T12:06:14.456Z,15.74
2019-05-12T12:08:44.174Z,16.65
2019-05-12T12:11:18.194Z,16.88
2019-05-12T12:13:41.569Z,16.84
2019-05-12T12:16:11.450Z,16.10
2019-05-12T12:18:39.078Z,16.14
2019-05-12T12:21:07.879Z,15.93
2019-05-12T12:23:35.979Z,16.96
2019-05-12T12:26:04.077Z,18.17
2019-05-12T12:28:34.322Z,16.42
2019-05-12T12:31:05.090Z,16.49
2019-05-12T12:33:38.707Z,17.00
2019-05-12T12:36:01.005Z,17.77
2019-05-12T12:38:28.900Z,17.51
2019-05-12T12:40:56.808Z,16.39
2019-05-12T12:43:24.908Z,16.54
2019-05-12T12:46:10.604Z,16.34
2019-05-12T12:48:39.625Z,16.89
2019-05-12T12:51:07.592Z,17.88
2019-05-12T12:53:36.580Z,17.05
2019-05-12T12:56:04.587Z,14.65
2019-05-12T12:58:34.518Z,14.98
2019-05-12T13:01:03.718Z,15.09
2019-05-12T13:03:33.605Z,14.74
2019-05-12T13:06:01.500Z,15.79
2019-05-12T13:08:29.375Z,17.26
2019-05-12T13:10:57.287Z,17.36
2019-05-12T13:13:25.299Z,17.36
2019-05-12T13:15:53.462Z,17.89
2019-05-12T13:18:27.601Z,17.96
2019-05-12T13:20:51.181Z,18.26
2019-05-12T13:23:19.128Z,18.12
2019-05-12T13:25:50.776Z,16.98
2019-05-12T13:28:19.003Z,17.65
2019-05-12T13:30:49.560Z,17.15
2019-05-12T13:33:18.233Z,17.96
2019-05-12T13:35:50.170Z,18.07
2019-05-12T13:38:15.425Z,18.11
2019-05-12T13:40:44.241Z,19.04
2019-05-12T13:43:15.598Z,18.43
2019-05-12T13:45:43.947Z,17.78
2019-05-12T13:48:15.795Z,18.25
2019-05-12T13:50:43.329Z,18.33
2019-05-12T13:53:11.112Z,17.48
2019-05-12T13:55:39.459Z,17.94
2019-05-12T13:58:08.648Z,17.76
2019-05-12T14:00:41.434Z,18.15
2019-05-12T14:03:09.466Z,18.12
2019-05-12T14:05:35.893Z,17.35
2019-05-12T14:08:04.053Z,16.97
2019-05-12T14:10:35.392Z,17.87
2019-05-12T14:13:03.476Z,18.14
2019-05-12T14:15:33.923Z,17.94
2019-05-12T14:18:03.274Z,18.06
2019-05-12T14:20:30.631Z,17.64
2019-05-12T14:22:58.523Z,18.10
2019-05-12T14:25:31.008Z,18.04
2019-05-12T14:27:59.530Z,16.94
2019-05-12T14:30:26.625Z,17.02
2019-05-12T14:32:58.992Z,17.25
2019-05-12T14:35:24.135Z,17.45
2019-05-12T14:37:53.739Z,17.47
2019-05-12T14:40:29.853Z,16.92
2019-05-12T14:42:51.296Z,17.41
2019-05-12T14:45:24.235Z,16.17
2019-05-12T14:47:48.871Z,16.58
2019-05-12T14:50:16.851Z,17.16
2019-05-12T14:52:44.728Z,17.37
2019-05-12T14:55:13.934Z,17.25
2019-05-12T14:57:43.555Z,17.32
2019-05-12T15:00:17.373Z,17.88
2019-05-12T15:02:43.691Z,18.41
2019-05-12T15:05:14.138Z,17.82
2019-05-12T15:07:50.331Z,17.10
2019-05-12T15:10:11.226Z,16.67
2019-05-12T15:12:39.132Z,17.02
2019-05-12T15:15:09.068Z,16.19
2019-05-12T15:17:37.144Z,16.03
2019-05-12T15:20:08.796Z,16.53
2019-05-12T15:22:34.817Z,16.30
2019-05-12T15:25:05.314Z,15.76
2019-05-12T15:27:44.106Z,16.42
2019-05-12T15:30:04.042Z,15.72
2019-05-12T15:32:34.013Z,15.73
2019-05-12T15:35:01.398Z,16.22
2019-05-12T15:37:35.003Z,15.45
2019-05-12T15:39:58.919Z,16.33
2019-05-12T15:42:26.911Z,16.54
2019-05-12T15:44:54.866Z,15.72
2019-05-12T15:47:27.271Z,16.18
2019-05-12T15:49:53.186Z,15.51
2019-05-12T15:52:24.592Z,15.93
2019-05-12T15:54:54.017Z,15.38
2019-05-12T15:57:24.255Z,15.58
2019-05-12T15:59:53.977Z,15.61
2019-05-12T16:02:23.286Z,15.38
2019-05-12T16:04:50.912Z,15.58
2019-05-12T16:07:18.934Z,15.31
2019-05-12T16:09:46.864Z,14.61
2019-05-12T16:12:19.885Z,14.88
2019-05-12T16:14:44.987Z,14.87
2019-05-12T16:17:16.811Z,15.32
2019-05-12T16:19:43.776Z,14.52
2019-05-12T16:22:13.797Z,15.07
2019-05-12T16:24:43.489Z,15.05
2019-05-12T16:27:11.226Z,15.17
2019-05-12T16:29:44.340Z,15.27
2019-05-12T16:32:26.041Z,14.98
2019-05-12T16:34:44.933Z,15.38
2019-05-12T16:37:09.621Z,15.16
2019-05-12T16:39:44.229Z,15.28
2019-05-12T16:42:10.445Z,14.83
2019-05-12T16:44:36.900Z,14.21
2019-05-12T16:47:04.880Z,14.33
2019-05-12T16:49:33.575Z,14.51
2019-05-12T16:52:03.649Z,14.39
2019-05-12T16:54:33.553Z,14.47
2019-05-12T16:57:06.424Z,14.34
2019-05-12T16:59:31.161Z,13.96
2019-05-12T17:02:04.291Z,13.87
2019-05-12T17:04:28.761Z,13.86
2019-05-12T17:06:56.663Z,13.60
2019-05-12T17:09:24.577Z,13.89
2019-05-12T17:11:54.998Z,13.79
2019-05-12T17:14:23.518Z,13.94
2019-05-12T17:16:51.689Z,13.85
2019-05-12T17:19:19.582Z,13.69
2019-05-12T17:21:49.318Z,12.98
2019-05-12T17:24:17.189Z,13.30
2019-05-12T17:26:45.107Z,13.13
2019-05-12T17:29:13.691Z,13.03
2019-05-12T17:31:44.243Z,13.24
2019-05-12T17:34:11.534Z,13.22
2019-05-12T17:36:39.636Z,13.19
2019-05-12T17:39:07.968Z,12.86
2019-05-12T17:41:40.404Z,12.96
2019-05-12T17:44:06.005Z,13.04
2019-05-12T17:46:38.003Z,13.01
2019-05-12T17:49:04.097Z,12.69
2019-05-12T17:51:32.104Z,12.81
2019-05-12T17:54:00.000Z,12.93
2019-05-12T17:56:34.215Z,12.63
2019-05-12T17:58:57.537Z,13.00
2019-05-12T18:01:31.262Z,12.97
2019-05-12T18:03:55.256Z,12.56
2019-05-12T18:06:26.747Z,12.71
2019-05-12T18:08:53.460Z,12.28
2019-05-12T18:11:23.931Z,12.22
2019-05-12T18:14:01.483Z,12.16
2019-05-12T18:16:22.699Z,12.41
2019-05-12T18:18:50.548Z,12.12
2019-05-12T18:21:21.828Z,11.99
2019-05-12T18:23:48.154Z,12.03
2019-05-12T18:26:16.594Z,12.24
2019-05-12T18:28:44.652Z,12.02
2019-05-12T18:31:13.829Z,11.76
2019-05-12T18:33:50.857Z,11.85
2019-05-12T18:36:14.200Z,11.72
2019-05-12T18:38:41.368Z,11.66
2019-05-12T18:41:09.289Z,11.59
2019-05-12T18:43:37.311Z,11.32
2019-05-12T18:46:08.910Z,11.41
2019-05-12T18:48:34.984Z,11.42
2019-05-12T18:51:11.582Z,11.34
2019-05-12T18:53:34.929Z,11.33
2019-05-12T18:56:04.630Z,11.15
2019-05-12T18:58:33.331Z,10.99
2019-05-12T19:01:03.455Z,10.97
2019-05-12T19:03:44.763Z,11.18
2019-05-12T19:06:03.321Z,11.04
2019-05-12T19:08:30.789Z,11.02
2019-05-12T19:10:58.737Z,11.03
2019-05-12T19:13:26.734Z,11.01
2019-05-12T19:16:02.431Z,10.89
2019-05-12T19:18:32.102Z,10.77
2019-05-12T19:20:54.284Z,10.84
2019-05-12T19:23:26.854Z,11.03
2019-05-12T19:25:54.197Z,10.44
2019-05-12T19:28:23.681Z,10.39
2019-05-12T19:30:51.299Z,10.55
2019-05-12T19:33:19.193Z,10.55
2019-05-12T19:35:50.475Z,10.37
2019-05-12T19:38:16.718Z,10.39
2019-05-12T19:40:47.312Z,10.25
2019-05-12T19:43:14.409Z,10.25
2019-05-12T19:45:43.501Z,10.05
2019-05-12T19:48:23.325Z,10.35
2019-05-12T19:50:44.452Z,10.17
2019-05-12T19:53:13.218Z,10.04
2019-05-12T19:55:40.700Z,10.08
2019-05-12T19:58:12.684Z,10.06
2019-05-12T20:00:38.249Z,9.87
2019-05-12T20:03:08.582Z,9.91
2019-05-12T20:05:35.780Z,9.88
2019-05-12T20:08:04.185Z,9.83
2019-05-12T20:14:31.385Z,9.60
2019-05-12T20:17:48.833Z,9.70
2019-05-12T20:52:55.875Z,9.39
2019-05-12T20:55:41.206Z,9.02
2019-05-12T20:58:06.337Z,8.98
2019-05-12T21:00:38.988Z,9.10
2019-05-12T21:03:08.901Z,9.12
2019-05-12T21:05:38.201Z,8.83
2019-05-12T21:11:47.774Z,8.50
2019-05-12T21:14:25.518Z,8.67
2019-05-12T21:17:03.057Z,8.65
2019-05-12T21:45:43.494Z,8.19
2019-05-12T21:58:10.094Z,7.96
2019-05-12T22:00:34.802Z,7.96
2019-05-12T22:03:08.223Z,7.76
2019-05-12T22:05:49.306Z,7.59
2019-05-12T22:08:06.548Z,7.72
2019-05-12T22:10:34.762Z,7.51
2019-05-12T22:13:06.846Z,7.59
2019-05-12T22:15:34.704Z,7.58
2019-05-12T23:42:27.036Z,5.56
